Time;durP1;ratioP1;P1;durP2;ratioP2;P2;SDS_P1;SDS_P2;PMS_P1;PMS_P2;Temp;Humidity;BMP_temperature;BMP_pressure;BME280_temperature;BME280_humidity;BME280_pressure;Samples;Min_cycle;Max_cycle;Signal;HPM_P1;HPM_P2
2023/03/01 00:01:13;;;;;;;;;;;;;;;;;;1760682;81;20786;-88
2023/03/01 00:03:42;;;;;;;;;;;;;;;;;;1744121;81;20236;-90
2023/03/01 00:06:30;;;;;;;;;;;;;;;;;;1763516;81;20226;-90
2023/03/01 00:09:21;;;;;;;;;;;;;;;;;;1782073;80;20240;-88
2023/03/01 00:12:11;;;;;;;;;;;;;;;;;;;;;
2023/03/01 00:14:54;;;;;;;;;;;;;;;;;;1743017;81;20198;-90
2023/03/01 00:17:26;;;;;;;;;;;;;;;;;;1753536;81;20227;-90
2023/03/01 00:22:55;;;;;;;;;;;;;;;;;;1750909;81;20245;-89
2023/03/01 00:25:25;;;;;;;;;;;;;;;;;;1734977;80;20181;-89
2023/03/01 00:27:54;;;;;;;;;;;;;;;;;;1733732;81;20137;-89
2023/03/01 00:30:23;;;;;;;;;;;;;;;;;;1748322;82;20171;-89
2023/03/01 00:32:52;;;;;;;;;;;;;;;;;;1738466;82;20208;-91
2023/03/01 00:35:43;;;;;;;;;;;;;;;;;;1719562;82;20195;-89
2023/03/01 00:38:12;;;;;;;;;;;;;;;;;;1743310;82;20186;-89
2023/03/01 00:46:26;;;;;;;;;;;;;;;;;;1643942;85;20207;-87
2023/03/01 00:48:56;;;;;;;;;;;;;;;;;;1741139;81;20192;-89
2023/03/01 00:51:25;;;;;;;;;;;;;;;;;;1739958;82;20175;-93
2023/03/01 00:56:38;;;;;;;;;;;;;;;;;;1748398;80;20710;-76
2023/03/01 00:59:08;;;;;;;;;;;;;;;;;;1782377;79;20448;-75
2023/03/01 01:01:37;;;;;;;;;;;;;;;;;;1793769;79;20548;-73
2023/03/01 01:04:07;;;;;;;;;;;;;;;;;;1788915;79;20239;-75
2023/03/01 01:06:36;;;;;;;;;;;;;;;;;;1787212;79;20181;-76
2023/03/01 01:09:06;;;;;;;;;;;;;;;;;;1788056;79;20503;-75
2023/03/01 01:11:36;;;;;;;;;;;;;;;;;;1761845;80;20462;-74
2023/03/01 01:14:24;;;;;;;;;;;;;;;;;;1649245;85;20224;-77
2023/03/01 01:16:54;;;;;;;;;;;;;;;;;;1650679;85;20242;-75
2023/03/01 01:19:23;;;;;;;;;;;;;;;;;;1647599;85;20219;-74
2023/03/01 01:21:52;;;;;;;;;;;;;;;;;;1656075;85;20188;-74
2023/03/01 01:24:22;;;;;;;;;;;;;;;;;;1649425;85;20702;-75
2023/03/01 01:26:51;;;;;;;;;;;;;;;;;;1651586;85;20721;-74
2023/03/01 01:29:21;;;;;;;;;;;;;;;;;;1651989;85;20505;-77
2023/03/01 01:31:51;;;;;;;;;;;;;;;;;;1652265;85;20254;-74
2023/03/01 01:34:20;;;;;;;;;;;;;;;;;;1649407;87;20306;-77
2023/03/01 01:36:50;;;;;;;;;;;;;;;;;;1649268;85;20421;-75
2023/03/01 01:39:19;;;;;;;;;;;;;;;;;;1650798;85;20657;-76
2023/03/01 01:41:51;;;;;;;;;;;;;;;;;;1649161;85;20261;-75
2023/03/01 01:44:21;;;;;;;;;;;;;;;;;;1651100;85;20720;-74
2023/03/01 01:46:50;;;;;;;;;;;;;;;;;;1657646;85;20254;-75
2023/03/01 01:49:19;;;;;;;;;;;;;;;;;;1649596;85;20314;-74
2023/03/01 01:55:14;;;;;;;;;;;;;;;;;;;;;
2023/03/01 01:58:02;;;;;;;;;;;;;;;;;;1671306;83;20280;-77
2023/03/01 02:00:34;;;;;;;;;;;;;;;;;;1695635;83;20429;-75
2023/03/01 02:03:02;;;;;;;;;;;;;;;;;;1704046;83;20177;-73
2023/03/01 02:05:32;;;;;;;;;;;;;;;;;;1695532;82;20481;-74
2023/03/01 02:08:08;;;;;;;;;;;;;;;;;;1705214;82;20515;-75
2023/03/01 02:10:38;;;;;;;;;;;;;;;;;;1654391;83;20498;-75
2023/03/01 02:13:07;;;;;;;;;;;;;;;;;;1661874;83;20518;-75
2023/03/01 02:15:37;;;;;;;;;;;;;;;;;;1687651;85;20209;-73
2023/03/01 02:18:06;;;;;;;;;;;;;;;;;;1683113;84;20196;-74
2023/03/01 02:20:35;;;;;;;;;;;;;;;;;;1683438;84;20187;-74
2023/03/01 02:23:05;;;;;;;;;;;;;;;;;;1685273;84;20699;-75
2023/03/01 02:25:35;;;;;;;;;;;;;;;;;;1681801;84;20304;-74
2023/03/01 02:28:04;;;;;;;;;;;;;;;;;;1701768;84;20458;-74
2023/03/01 02:36:18;;;;;;;;;;;;;;;;;;1694755;84;20265;-74
2023/03/01 02:38:47;;;;;;;;;;;;;;;;;;1683480;84;20202;-74
2023/03/01 02:41:17;;;;;;;;;;;;;;;;;;1681118;84;20306;-73
2023/03/01 02:43:46;;;;;;;;;;;;;;;;;;1681942;84;20255;-74
2023/03/01 02:46:16;;;;;;;;;;;;;;;;;;1682792;84;20296;-73
2023/03/01 02:48:45;;;;;;;;;;;;;;;;;;1685237;84;20197;-74
2023/03/01 02:51:14;;;;;;;;;;;;;;;;;;1683912;84;20235;-73
2023/03/01 02:53:44;;;;;;;;;;;;;;;;;;1682797;84;20268;-73
2023/03/01 03:01:53;;;;;;;;;;;;;;;;;;1815843;78;20244;-75
2023/03/01 03:04:22;;;;;;;;;;;;;;;;;;1813511;78;20264;-76
2023/03/01 03:06:56;;;;;;;;;;;;;;;;;;1812931;78;20541;-74
2023/03/01 03:09:25;;;;;;;;;;;;;;;;;;1817479;77;20248;-73
2023/03/01 03:11:54;;;;;;;;;;;;;;;;;;1816608;77;20130;-74
2023/03/01 03:14:34;;;;;;;;;;;;;;;;;;;;;
2023/03/01 03:16:55;;;;;;;;;;;;;;;;;;1804850;78;20185;-74
2023/03/01 03:22:36;;;;;;;;;;;;;;;;;;1751206;81;20228;-73
2023/03/01 03:44:28;;;;;;;;;;;;;;;;;;1688073;83;20334;-74
2023/03/01 03:47:38;;;;;;;;;;;27.80;67.70;;;;;;1673057;84;20249;-76
2023/03/01 03:53:12;;;;;;;;;;;27.70;68.80;;;;;;1916724;73;20200;-75
2023/03/01 03:55:44;;;;;;;;;;;27.70;68.30;;;;;;1901555;74;20210;-74
2023/03/01 03:58:14;;;;;;;;;;;27.80;68.00;;;;;;1908615;73;20498;-74
2023/03/01 04:01:04;;;;;;;;;;;27.90;68.20;;;;;;1913453;73;20131;-73
2023/03/01 04:03:38;;;;;;;;;;;28.00;67.90;;;;;;1870617;75;20285;-74
2023/03/01 04:06:08;;;;;;;;;;;28.00;67.90;;;;;;1862740;75;20487;-75
2023/03/01 04:08:39;;;;;;;;;;;28.10;67.00;;;;;;1862441;75;20447;-76
2023/03/01 04:14:04;;;;;;;;;;;28.20;67.00;;;;;;1803894;78;20205;-75
2023/03/01 04:16:52;;;;;;;;;;;28.30;66.60;;;;;;1826700;77;20229;-73
2023/03/01 04:19:35;;;;;;;;;;;28.40;66.80;;;;;;1829185;77;20313;-75
2023/03/01 04:22:09;;;;;;;;;;;28.50;66.50;;;;;;1831093;77;20681;-75
2023/03/01 04:24:39;;;;;;;;;;;28.50;65.70;;;;;;1847557;76;20449;-75
2023/03/01 04:27:15;;;;;;;;;;;28.60;65.60;;;;;;1855236;76;20201;-74
2023/03/01 04:29:45;;;;;;;;;;;28.70;65.50;;;;;;1825988;77;20200;-74
2023/03/01 04:32:16;;;;;;;;;;;28.80;63.90;;;;;;1798522;77;20261;-74
2023/03/01 04:35:06;;;;;;;;;;;28.90;65.10;;;;;;1809545;77;20676;-77
2023/03/01 04:37:36;;;;;;;;;;;29.10;64.20;;;;;;1792305;78;20530;-75
2023/03/01 04:40:24;;;;;;;;;;;29.10;65.10;;;;;;1834936;76;20211;-76
2023/03/01 04:42:59;;;;;;;;;;;29.20;64.70;;;;;;1827687;77;20143;-75
2023/03/01 04:45:28;;;;;;;;;;;29.30;64.40;;;;;;1836747;76;20171;-75
2023/03/01 04:47:58;;;;;;;;;;;29.50;64.40;;;;;;1838869;77;20226;-72
2023/03/01 04:50:29;;;;;;;;;;;29.60;62.60;;;;;;1840117;77;20503;-75
2023/03/01 04:52:59;;;;;;;;;;;29.60;63.20;;;;;;1836192;77;20247;-75
2023/03/01 04:55:40;;;;;;;;;;;29.70;61.50;;;;;;1838197;77;20130;-90
2023/03/01 05:01:36;;;;;;;;;;;30.00;62.00;;;;;;1843334;77;20132;-93
2023/03/01 05:04:13;;;;;;;;;;;30.10;59.40;;;;;;1803784;78;20138;-94
2023/03/01 05:06:58;;;;;;;;;;;30.20;59.80;;;;;;1776150;79;20157;-93
2023/03/01 05:09:29;;;;;;;;;;;30.30;59.10;;;;;;1776231;79;20137;-94
2023/03/01 05:12:24;;;;;;;;;;;30.40;59.20;;;;;;1781257;79;20237;-94
2023/03/01 05:15:14;;;;;;;;;;;30.50;59.60;;;;;;1873183;73;20133;-94
2023/03/01 05:18:04;;;;;;;;;;;30.60;58.50;;;;;;1879329;76;20160;-94
2023/03/01 05:23:43;;;;;;;;;;;30.70;57.50;;;;;;1889889;75;20168;-95
2023/03/01 05:26:15;;;;;;;;;;;30.80;57.80;;;;;;1895816;74;20132;-94
2023/03/01 05:28:47;;;;;;;;;;;30.90;58.60;;;;;;1887119;76;20125;-94
2023/03/01 05:31:17;;;;;;;;;;;30.90;58.50;;;;;;1854111;77;20154;-94
2023/03/01 05:33:47;;;;;;;;;;;31.00;58.40;;;;;;1869194;77;20134;-94
2023/03/01 05:36:18;;;;;;;;;;;31.00;57.30;;;;;;1864277;76;20162;-93
2023/03/01 05:38:48;;;;;;;;;;;31.00;56.40;;;;;;1863879;76;20233;-92
2023/03/01 05:41:20;;;;;;;;;;;31.00;54.20;;;;;;1869689;76;20132;-92
2023/03/01 05:43:50;;;;;;;;;;;31.10;56.90;;;;;;1849375;77;20112;-90
2023/03/01 05:49:29;;;;;;;;;;;31.10;56.00;;;;;;1899580;76;20120;-91
2023/03/01 05:52:01;;;;;;;;;;;31.20;56.70;;;;;;1794645;79;20626;-92
2023/03/01 05:54:31;;;;;;;;;;;31.20;55.70;;;;;;1863441;77;20209;-92
2023/03/01 05:57:01;;;;;;;;;;;31.20;55.80;;;;;;1860256;76;20138;-93
2023/03/01 05:59:55;;;;;;;;;;;31.20;55.00;;;;;;1866073;77;20447;-92
2023/03/01 06:02:24;;;;;;;;;;;31.20;57.50;;;;;;1860285;76;20301;-86
2023/03/01 06:04:54;;;;;;;;;;;31.20;55.70;;;;;;1869468;76;20203;-74
2023/03/01 06:07:25;;;;;;;;;;;31.20;58.00;;;;;;1857690;75;20625;-77
2023/03/01 06:09:54;;;;;;;;;;;31.20;55.50;;;;;;1866694;75;20441;-75
2023/03/01 06:12:24;;;;;;;;;;;31.30;56.10;;;;;;1876495;75;20314;-76
2023/03/01 06:14:56;;;;;;;;;;;31.30;56.20;;;;;;1852831;75;20352;-75
2023/03/01 06:17:26;;;;;;;;;;;31.30;55.30;;;;;;1860487;75;20569;-76
2023/03/01 06:19:57;;;;;;;;;;;31.40;54.40;;;;;;1862429;75;20390;-75
2023/03/01 06:22:27;;;;;;;;;;;31.50;56.40;;;;;;1869405;75;20659;-76
2023/03/01 06:24:57;;;;;;;;;;;31.50;55.70;;;;;;1902443;74;20216;-76
2023/03/01 06:27:27;;;;;;;;;;;31.60;54.30;;;;;;1899284;74;20576;-75
2023/03/01 06:29:57;;;;;;;;;;;31.60;51.10;;;;;;1907630;74;20660;-76
2023/03/01 06:32:28;;;;;;;;;;;31.60;54.20;;;;;;1902749;74;20254;-76
2023/03/01 06:34:58;;;;;;;;;;;31.70;51.90;;;;;;1895924;74;20185;-77
2023/03/01 06:37:28;;;;;;;;;;;31.70;58.90;;;;;;1901241;74;20201;-77
2023/03/01 06:39:58;;;;;;;;;;;31.70;49.10;;;;;;1895771;74;20304;-74
2023/03/01 06:42:28;;;;;;;;;;;31.70;49.60;;;;;;1898219;74;20193;-75
2023/03/01 06:44:57;;;;;;;;;;;31.70;51.20;;;;;;1900223;74;20221;-75
2023/03/01 06:47:27;;;;;;;;;;;31.70;52.20;;;;;;1900494;74;20203;-73
2023/03/01 06:50:01;;;;;;;;;;;31.70;48.40;;;;;;1897955;74;20226;-77
2023/03/01 06:52:32;;;;;;;;;;;31.70;48.80;;;;;;1898282;74;20570;-74
2023/03/01 06:55:03;;;;;;;;;;;31.80;51.20;;;;;;1902066;74;20705;-75
2023/03/01 06:57:33;;;;;;;;;;;31.90;51.00;;;;;;1900949;74;20196;-75
2023/03/01 07:00:04;;;;;;;;;;;31.90;48.10;;;;;;1870562;75;20185;-77
2023/03/01 07:02:34;;;;;;;;;;;32.00;48.70;;;;;;1823733;77;20289;-78
2023/03/01 07:05:05;;;;;;;;;;;32.00;52.40;;;;;;1829567;77;20208;-76
2023/03/01 07:07:35;;;;;;;;;;;32.00;52.20;;;;;;1831810;77;20687;-74
2023/03/01 07:10:11;;;;;;;;;;;32.10;52.20;;;;;;1831578;76;29162;-78
2023/03/01 07:12:38;;;;;;;;;;;32.10;48.60;;;;;;1826079;77;20180;-77
2023/03/01 07:15:09;;;;;;;;;;;32.10;48.20;;;;;;1838864;76;20196;-77
2023/03/01 07:17:39;;;;;;;;;;;32.10;48.90;;;;;;1913455;73;20297;-77
2023/03/01 07:20:10;;;;;;;;;;;32.00;50.00;;;;;;1904958;73;20525;-79
2023/03/01 07:22:42;;;;;;;;;;;32.10;50.90;;;;;;1909913;73;20231;-77
2023/03/01 07:25:12;;;;;;;;;;;32.10;51.10;;;;;;1912646;73;20241;-79
2023/03/01 07:27:42;;;;;;;;;;;32.00;47.80;;;;;;1916326;73;20169;-76
2023/03/01 07:30:12;;;;;;;;;;;32.00;48.80;;;;;;1864415;75;20226;-80
2023/03/01 07:32:42;;;;;;;;;;;32.00;47.60;;;;;;1908854;73;20240;-76
2023/03/01 07:35:13;;;;;;;;;;;31.90;48.10;;;;;;1917534;73;20220;-77
2023/03/01 07:37:44;;;;;;;;;;;31.90;49.80;;;;;;1858023;75;20259;-76
2023/03/01 07:40:32;;;;;;;;;;;31.90;49.90;;;;;;1803908;78;20281;-77
2023/03/01 07:43:02;;;;;;;;;;;31.90;49.30;;;;;;1801604;78;20217;-80
2023/03/01 07:45:32;;;;;;;;;;;31.90;48.50;;;;;;1792834;78;20385;-77
2023/03/01 07:48:03;;;;;;;;;;;32.00;47.50;;;;;;1826964;77;20241;-79
2023/03/01 07:50:33;;;;;;;;;;;32.00;49.70;;;;;;1814965;77;20305;-75
2023/03/01 07:53:04;;;;;;;;;;;31.90;48.80;;;;;;1815206;78;20279;-76
2023/03/01 07:55:34;;;;;;;;;;;31.90;50.90;;;;;;1812256;78;20227;-78
2023/03/01 07:58:04;;;;;;;;;;;31.90;50.20;;;;;;1806423;78;20648;-77
2023/03/01 08:00:34;;;;;;;;;;;31.90;49.60;;;;;;1825770;77;20260;-76
2023/03/01 08:03:04;;;;;;;;;;;31.90;50.90;;;;;;1781989;79;20209;-76
2023/03/01 08:05:34;;;;;;;;;;;31.80;52.50;;;;;;1798861;78;20248;-81
2023/03/01 08:08:05;;;;;;;;;;;31.70;50.30;;;;;;1798692;78;20283;-74
2023/03/01 08:10:35;;;;;;;;;;;31.70;50.70;;;;;;1807309;78;20189;-76
2023/03/01 08:13:07;;;;;;;;;;;31.70;49.80;;;;;;1794378;80;20134;-76
2023/03/01 08:15:43;;;;;;;;;;;31.70;48.00;;;;;;1782618;78;20535;-76
2023/03/01 08:18:13;;;;;;;;;;;31.70;50.10;;;;;;1816851;77;20691;-75
2023/03/01 08:20:43;;;;;;;;;;;31.80;49.70;;;;;;1872651;75;20188;-77
2023/03/01 08:23:17;;;;;;;;;;;31.80;49.90;;;;;;1874037;75;20205;-76
2023/03/01 08:25:47;;;;;;;;;;;31.80;49.20;;;;;;1878968;75;20243;-76
2023/03/01 08:28:18;;;;;;;;;;;31.80;50.80;;;;;;1883513;75;20211;-74
2023/03/01 08:30:48;;;;;;;;;;;31.80;49.80;;;;;;1875672;75;20129;-76
2023/03/01 08:33:18;;;;;;;;;;;31.80;49.80;;;;;;1875666;75;20238;-78
2023/03/01 08:35:54;;;;;;;;;;;31.80;50.40;;;;;;1878472;75;20218;-77
2023/03/01 08:38:25;;;;;;;;;;;31.80;49.40;;;;;;1876758;75;20839;-75
2023/03/01 08:40:58;;;;;;;;;;;31.80;50.20;;;;;;1874504;75;20295;-75
2023/03/01 08:43:26;;;;;;;;;;;31.80;49.00;;;;;;1879868;75;20285;-78
2023/03/01 08:45:56;;;;;;;;;;;31.80;49.60;;;;;;1881444;75;20259;-77
2023/03/01 08:48:27;;;;;;;;;;;31.80;50.40;;;;;;1878183;75;20266;-78
2023/03/01 08:51:39;;;;;;;;;;;31.80;47.80;;;;;;1900792;75;20394;-77
2023/03/01 08:54:18;;;;;;;;;;;31.70;51.10;;;;;;1797662;78;20220;-77
2023/03/01 08:56:49;;;;;;;;;;;31.70;47.50;;;;;;1813248;78;20495;-76
2023/03/01 08:59:19;;;;;;;;;;;31.70;49.30;;;;;;1808448;78;20295;-76
2023/03/01 09:01:49;;;;;;;;;;;31.70;49.20;;;;;;1814211;78;20326;-76
2023/03/01 09:04:19;;;;;;;;;;;31.70;50.20;;;;;;1839843;76;20423;-77
2023/03/01 09:06:49;;;;;;;;;;;31.60;50.00;;;;;;1837352;76;20272;-77
2023/03/01 09:09:19;;;;;;;;;;;31.60;48.50;;;;;;1829210;77;20654;-77
2023/03/01 09:11:50;;;;;;;;;;;31.70;50.00;;;;;;1829193;77;20274;-78
2023/03/01 09:14:20;;;;;;;;;;;31.70;49.30;;;;;;1829570;76;20537;-77
2023/03/01 09:16:50;;;;;;;;;;;31.70;49.20;;;;;;1826741;76;20792;-78
2023/03/01 09:19:20;;;;;;;;;;;31.80;49.20;;;;;;1827364;77;20269;-78
2023/03/01 09:21:55;;;;;;;;;;;31.70;47.90;;;;;;1824950;77;20297;-77
2023/03/01 09:24:26;;;;;;;;;;;31.70;48.50;;;;;;1828464;76;20173;-77
2023/03/01 09:26:56;;;;;;;;;;;31.80;50.30;;;;;;1828198;76;20255;-78
2023/03/01 09:29:27;;;;;;;;;;;31.80;48.30;;;;;;1825798;76;20188;-78
2023/03/01 09:31:58;;;;;;;;;;;31.70;47.90;;;;;;1831853;76;20608;-78
2023/03/01 09:34:28;;;;;;;;;;;31.70;48.40;;;;;;1823531;77;20187;-78
2023/03/01 09:36:58;;;;;;;;;;;31.60;49.60;;;;;;1823143;76;20518;-77
2023/03/01 09:39:28;;;;;;;;;;;31.60;49.10;;;;;;1822719;77;20360;-77
2023/03/01 09:42:04;;;;;;;;;;;31.50;48.80;;;;;;1792022;78;20649;-78
2023/03/01 09:44:38;;;;;;;;;;;31.50;49.50;;;;;;1790439;78;20675;-78
2023/03/01 09:47:09;;;;;;;;;;;31.40;50.50;;;;;;1790354;78;20567;-77
2023/03/01 09:49:41;;;;;;;;;;;31.30;50.20;;;;;;1787706;78;20196;-76
2023/03/01 09:52:15;;;;;;;;;;;31.30;50.40;;;;;;1801502;78;20212;-77
2023/03/01 09:54:45;;;;;;;;;;;31.30;50.40;;;;;;1792097;78;20414;-79
2023/03/01 09:57:28;;;;;;;;;;;31.30;51.40;;;;;;1837368;77;20889;-77
2023/03/01 10:00:04;;;;;;;;;;;31.30;50.40;;;;;;1792985;78;20477;-77
2023/03/01 10:02:52;;;;;;;;;;;31.20;50.70;;;;;;1795501;78;20286;-76
2023/03/01 10:05:26;;;;;;;;;;;31.20;49.70;;;;;;1888952;75;20581;-78
2023/03/01 10:08:10;;;;;;;;;;;31.10;49.70;;;;;;1885227;75;20231;-77
2023/03/01 10:10:44;;;;;;;;;;;31.10;51.30;;;;;;1889445;75;20246;-78
2023/03/01 10:13:32;;;;;;;;;;;31.00;50.20;;;;;;1882748;75;20239;-76
2023/03/01 10:19:09;;;;;;;;;;;31.00;50.80;;;;;;1871423;75;20255;-78
2023/03/01 10:21:49;;;;;;;;;;;30.90;51.10;;;;;;1878339;75;20180;-77
2023/03/01 10:24:24;;;;;;;;;;;30.90;51.70;;;;;;1883627;75;20354;-77
2023/03/01 10:27:07;;;;;;;;;;;30.80;52.30;;;;;;1884793;75;20183;-77
2023/03/01 10:30:12;;;;;;;;;;;30.80;51.80;;;;;;1882619;75;20346;-79
2023/03/01 10:32:45;;;;;;;;;;;30.70;51.10;;;;;;1880626;75;20359;-78
2023/03/01 10:35:25;;;;;;;;;;;30.70;51.20;;;;;;1880292;75;20183;-77
2023/03/01 10:38:13;;;;;;;;;;;30.60;51.60;;;;;;1884210;75;20553;-78
2023/03/01 10:40:56;;;;;;;;;;;30.60;52.20;;;;;;1879062;75;20209;-78
2023/03/01 10:43:49;;;;;;;;;;;30.60;52.60;;;;;;1866110;75;20624;-78
2023/03/01 10:46:30;;;;;;;;;;;30.60;52.10;;;;;;1875073;75;20502;-79
2023/03/01 10:49:11;;;;;;;;;;;30.50;52.60;;;;;;1875045;75;20199;-90
2023/03/01 10:54:56;;;;;;;;;;;30.50;53.00;;;;;;1888771;73;20184;-90
2023/03/01 10:57:47;;;;;;;;;;;30.40;53.30;;;;;;1815955;77;20258;-96
2023/03/01 11:00:52;;;;;;;;;;;30.40;52.90;;;;;;1817845;77;20129;-94
2023/03/01 11:03:30;;;;;;;;;;;30.40;53.10;;;;;;1922413;74;20126;-93
2023/03/01 11:06:07;;;;;;;;;;;30.30;52.90;;;;;;1926171;74;20219;-95
2023/03/01 11:08:42;;;;;;;;;;;30.30;53.30;;;;;;1896091;76;20112;-94
2023/03/01 11:11:19;;;;;;;;;;;30.20;53.40;;;;;;1895989;76;20156;-94
2023/03/01 11:14:09;;;;;;;;;;;30.10;53.70;;;;;;1896346;76;20132;-94
2023/03/01 11:16:45;;;;;;;;;;;30.10;53.90;;;;;;1894803;76;20120;-94
2023/03/01 11:19:16;;;;;;;;;;;30.10;54.20;;;;;;1892285;76;20116;-94
2023/03/01 11:22:02;;;;;;;;;;;30.10;54.30;;;;;;1894342;76;20117;-96
2023/03/01 11:28:05;;;;;;;;;;;30.00;54.60;;;;;;1929897;74;20118;-94
2023/03/01 11:30:37;;;;;;;;;;;29.90;54.80;;;;;;1931095;74;20125;-92
2023/03/01 11:33:18;;;;;;;;;;;29.90;54.90;;;;;;1820495;78;20156;-95
2023/03/01 11:35:52;;;;;;;;;;;29.90;55.00;;;;;;1822937;77;20172;-94
2023/03/01 11:38:25;;;;;;;;;;;29.80;55.30;;;;;;1790406;78;20272;-93
2023/03/01 11:41:03;;;;;;;;;;;29.80;55.50;;;;;;1861577;76;20243;-94
2023/03/01 11:43:45;;;;;;;;;;;29.80;55.60;;;;;;1839722;77;20140;-93
2023/03/01 11:46:31;;;;;;;;;;;29.70;55.90;;;;;;1870032;76;20404;-94
2023/03/01 11:49:08;;;;;;;;;;;29.80;55.80;;;;;;1871119;76;20180;-94
2023/03/01 11:51:58;;;;;;;;;;;29.70;55.80;;;;;;1851372;77;20131;-95
2023/03/01 11:54:40;;;;;;;;;;;29.70;56.10;;;;;;1853812;76;20156;-96
2023/03/01 11:57:36;;;;;;;;;;;29.70;56.20;;;;;;1855353;76;20124;-95
2023/03/01 12:00:31;;;;;;;;;;;29.60;56.30;;;;;;1845927;78;20175;-93
2023/03/01 12:03:24;;;;;;;;;;;29.60;56.40;;;;;;1853108;77;20192;-94
2023/03/01 12:06:30;;;;;;;;;;;29.60;56.10;;;;;;1864147;77;20118;-93
2023/03/01 12:09:13;;;;;;;;;;;29.50;56.20;;;;;;1833729;78;20119;-94
2023/03/01 12:11:40;;;;;;;;;;;29.50;56.40;;;;;;1829176;78;20173;-94
2023/03/01 12:14:35;;;;;;;;;;;29.50;56.40;;;;;;1791722;79;20158;-95
2023/03/01 12:17:19;;;;;;;;;;;29.40;56.60;;;;;;1835969;78;20127;-94
2023/03/01 12:19:54;;;;;;;;;;;29.40;56.60;;;;;;1813085;78;20185;-95
2023/03/01 12:22:31;;;;;;;;;;;29.40;56.40;;;;;;1819141;79;20177;-95
2023/03/01 12:25:22;;;;;;;;;;;29.30;56.20;;;;;;1870833;77;20133;-94
2023/03/01 12:28:03;;;;;;;;;;;29.30;56.20;;;;;;1865148;77;20150;-93
2023/03/01 12:30:43;;;;;;;;;;;29.30;56.30;;;;;;1862127;77;20165;-94
2023/03/01 12:33:35;;;;;;;;;;;29.30;56.10;;;;;;1868004;77;20117;-94
2023/03/01 12:36:13;;;;;;;;;;;29.30;55.60;;;;;;1870568;77;20158;-94
2023/03/01 12:39:11;;;;;;;;;;;29.30;55.40;;;;;;1868825;76;20471;-93
2023/03/01 12:42:00;;;;;;;;;;;29.30;55.50;;;;;;1793501;79;20122;-95
2023/03/01 12:44:41;;;;;;;;;;;29.30;55.90;;;;;;1797126;79;20499;-94
2023/03/01 12:47:25;;;;;;;;;;;29.30;55.80;;;;;;1861353;76;20133;-93
2023/03/01 12:50:01;;;;;;;;;;;29.30;56.00;;;;;;1861045;77;20188;-93
2023/03/01 12:52:38;;;;;;;;;;;29.30;55.80;;;;;;1861602;77;20117;-93
2023/03/01 12:55:09;;;;;;;;;;;29.20;55.40;;;;;;1859599;77;20228;-93
2023/03/01 12:57:42;;;;;;;;;;;29.20;56.60;;;;;;1853775;76;20172;-94
2023/03/01 13:00:26;;;;;;;;;;;29.20;55.90;;;;;;1859255;77;20247;-93
2023/03/01 13:03:01;;;;;;;;;;;29.20;55.60;;;;;;1834120;77;20180;-93
2023/03/01 13:05:47;;;;;;;;;;;29.20;56.00;;;;;;1867738;76;20206;-93
2023/03/01 13:08:18;;;;;;;;;;;29.20;56.00;;;;;;1870224;76;20129;-93
2023/03/01 13:10:54;;;;;;;;;;;29.10;55.90;;;;;;1851919;75;20248;-93
2023/03/01 13:13:25;;;;;;;;;;;29.10;55.80;;;;;;1878686;75;20216;-94
2023/03/01 13:15:55;;;;;;;;;;;29.10;55.70;;;;;;1877006;75;20188;-92
2023/03/01 13:18:26;;;;;;;;;;;29.10;55.80;;;;;;1909249;75;20486;-93
2023/03/01 13:20:57;;;;;;;;;;;29.00;55.90;;;;;;1847320;78;20121;-93
2023/03/01 13:23:33;;;;;;;;;;;29.00;55.80;;;;;;1877804;76;20116;-93
2023/03/01 13:26:16;;;;;;;;;;;29.00;55.80;;;;;;1877720;75;20133;-92
2023/03/01 13:29:06;;;;;;;;;;;28.90;55.70;;;;;;1880540;76;20121;-94
2023/03/01 13:31:33;;;;;;;;;;;28.90;56.00;;;;;;1877373;75;20295;-91
2023/03/01 13:34:09;;;;;;;;;;;28.90;56.10;;;;;;1874223;76;20203;-91
2023/03/01 13:36:36;;;;;;;;;;;28.90;56.10;;;;;;1876891;75;20206;-93
2023/03/01 13:39:08;;;;;;;;;;;28.80;56.10;;;;;;1877261;75;20448;-92
2023/03/01 13:41:45;;;;;;;;;;;28.80;56.30;;;;;;1851957;76;20133;-93
2023/03/01 13:47:39;;;;;;;;;;;28.70;56.50;;;;;;1848755;78;20156;-93
2023/03/01 13:50:32;;;;;;;;;;;28.60;56.70;;;;;;1893927;75;20399;-94
2023/03/01 13:53:08;;;;;;;;;;;28.60;57.00;;;;;;1884871;75;20133;-95
2023/03/01 14:04:23;;;;;;;;;;;28.40;57.40;;;;;;1818700;78;20133;-95
2023/03/01 14:06:54;;;;;;;;;;;28.30;57.60;;;;;;1806393;79;20148;-93
2023/03/01 14:09:27;;;;;;;;;;;;;;;;;;1812882;77;20137;-93
2023/03/01 14:12:05;;;;;;;;;;;28.20;57.20;;;;;;1813260;79;20132;-92
2023/03/01 14:14:38;;;;;;;;;;;28.20;58.00;;;;;;1799715;77;20139;-93
2023/03/01 14:17:47;;;;;;;;;;;28.10;58.20;;;;;;1819665;77;20160;-94
2023/03/01 14:23:14;;;;;;;;;;;28.10;58.90;;;;;;1822176;79;20137;-94
2023/03/01 14:25:49;;;;;;;;;;;28.00;59.30;;;;;;1823743;79;20205;-94
2023/03/01 14:28:39;;;;;;;;;;;28.00;60.10;;;;;;1811363;79;20202;-94
2023/03/01 14:34:17;;;;;;;;;;;28.00;61.10;;;;;;1791896;80;20152;-89
2023/03/01 14:36:52;;;;;;;;;;;27.90;62.20;;;;;;1771131;80;20205;-91
2023/03/01 14:39:33;;;;;;;;;;;27.90;62.40;;;;;;1770441;78;20441;-92
2023/03/01 14:42:06;;;;;;;;;;;27.90;62.70;;;;;;1768923;79;20165;-90
2023/03/01 14:47:41;;;;;;;;;;;27.80;63.00;;;;;;1781558;80;20133;-92
2023/03/01 14:50:22;;;;;;;;;;;27.80;63.10;;;;;;1782324;79;20394;-90
2023/03/01 14:52:53;;;;;;;;;;;27.80;64.00;;;;;;1784103;80;20129;-91
2023/03/01 14:55:42;;;;;;;;;;;27.80;65.20;;;;;;1768076;79;20135;-93
2023/03/01 14:58:07;;;;;;;;;;;27.70;65.70;;;;;;1754142;80;20142;-92
2023/03/01 15:00:40;;;;;;;;;;;27.70;66.20;;;;;;1814059;79;20119;-92
2023/03/01 15:03:21;;;;;;;;;;;27.70;65.90;;;;;;1791054;79;20370;-94
2023/03/01 15:06:10;;;;;;;;;;;27.60;66.20;;;;;;1748694;79;20167;-92
2023/03/01 15:08:41;;;;;;;;;;;27.60;67.20;;;;;;1808927;77;20274;-91
2023/03/01 15:11:21;;;;;;;;;;;27.50;66.70;;;;;;1850016;77;20378;-93
2023/03/01 15:13:57;;;;;;;;;;;27.50;66.90;;;;;;1795684;77;20307;-91
2023/03/01 15:16:31;;;;;;;;;;;27.50;66.80;;;;;;1809514;76;20412;-91
2023/03/01 15:21:58;;;;;;;;;;;27.50;67.00;;;;;;1775140;78;20226;-90
2023/03/01 15:24:37;;;;;;;;;;;27.40;67.00;;;;;;1830190;78;20157;-90
2023/03/01 15:31:04;;;;;;;;;;;27.40;67.20;;;;;;1733609;82;20170;-91
2023/03/01 15:33:36;;;;;;;;;;;27.40;67.10;;;;;;1728602;82;20223;-90
2023/03/01 15:36:25;;;;;;;;;;;27.30;67.40;;;;;;1725838;82;20202;-90
2023/03/01 15:42:05;;;;;;;;;;;27.30;67.80;;;;;;1760246;80;20567;-90
2023/03/01 15:44:38;;;;;;;;;;;27.30;68.10;;;;;;1755900;81;20237;-93
2023/03/01 15:47:10;;;;;;;;;;;27.20;67.70;;;;;;1756913;80;20192;-93
2023/03/01 15:52:38;;;;;;;;;;;27.20;67.70;;;;;;1826574;77;20180;-93
2023/03/01 15:55:07;;;;;;;;;;;27.20;67.70;;;;;;1825382;77;20247;-91
2023/03/01 15:57:37;;;;;;;;;;;27.20;68.10;;;;;;1827110;77;20199;-91
2023/03/01 16:00:14;;;;;;;;;;;27.10;67.80;;;;;;1830368;77;20323;-91
2023/03/01 16:02:49;;;;;;;;;;;27.10;67.80;;;;;;1855584;77;20386;-91
2023/03/01 16:08:34;;;;;;;;;;;27.10;67.90;;;;;;1806410;79;20541;-92
2023/03/01 16:13:51;;;;;;;;;;;27.00;66.90;;;;;;1821930;78;20120;-94
2023/03/01 16:16:50;;;;;;;;;;;27.00;66.50;;;;;;1823545;77;20141;-93
2023/03/01 16:19:27;;;;;;;;;;;27.00;66.30;;;;;;1817985;79;20190;-95
2023/03/01 16:22:07;;;;;;;;;;;27.00;65.90;;;;;;1769185;79;20194;-90
2023/03/01 16:24:37;;;;;;;;;;;27.00;65.50;;;;;;1812720;78;20206;-91
2023/03/01 16:27:07;;;;;;;;;;;27.00;65.30;;;;;;1797853;78;20253;-90
2023/03/01 16:29:38;;;;;;;;;;;26.90;64.90;;;;;;1793803;79;20216;-90
2023/03/01 16:32:08;;;;;;;;;;;26.90;64.80;;;;;;1846668;75;20213;-90
2023/03/01 16:34:49;;;;;;;;;;;26.80;65.00;;;;;;1842293;76;20273;-91
2023/03/01 16:40:27;;;;;;;;;;;26.80;65.20;;;;;;1855140;76;20165;-91
2023/03/01 16:42:59;;;;;;;;;;;26.80;65.60;;;;;;1869114;75;20191;-94
2023/03/01 16:45:40;;;;;;;;;;;26.80;65.50;;;;;;1861396;76;20153;-93
2023/03/01 16:48:09;;;;;;;;;;;26.80;65.50;;;;;;1830431;77;20656;-94
2023/03/01 16:50:39;;;;;;;;;;;26.70;65.90;;;;;;1782975;79;20194;-92
2023/03/01 16:53:09;;;;;;;;;;;26.60;65.70;;;;;;1869986;76;20279;-92
2023/03/01 16:55:45;;;;;;;;;;;26.60;66.10;;;;;;1862398;77;20144;-92
2023/03/01 16:58:11;;;;;;;;;;;26.60;66.00;;;;;;1838122;77;20201;-91
2023/03/01 17:00:41;;;;;;;;;;;26.50;66.30;;;;;;1854654;76;20203;-92
2023/03/01 17:03:48;;;;;;;;;;;26.50;67.00;;;;;;1844563;75;20378;-92
2023/03/01 17:06:08;;;;;;;;;;;26.40;67.20;;;;;;1798797;78;20216;-92
2023/03/01 17:08:38;;;;;;;;;;;26.40;67.70;;;;;;1801156;79;20225;-90
2023/03/01 17:11:09;;;;;;;;;;;26.30;68.00;;;;;;1791852;78;20319;-91
2023/03/01 17:13:42;;;;;;;;;;;26.30;68.00;;;;;;1817945;78;20208;-93
2023/03/01 17:16:19;;;;;;;;;;;26.20;68.40;;;;;;1795781;79;20399;-93
2023/03/01 17:18:49;;;;;;;;;;;26.20;67.70;;;;;;1782709;80;20214;-94
2023/03/01 17:21:22;;;;;;;;;;;26.20;68.50;;;;;;1823428;77;20231;-91
2023/03/01 17:23:53;;;;;;;;;;;26.20;68.40;;;;;;1808793;79;20164;-92
2023/03/01 17:26:36;;;;;;;;;;;26.10;68.60;;;;;;1816462;78;20556;-93
2023/03/01 17:29:16;;;;;;;;;;;26.10;68.30;;;;;;1837698;78;20143;-93